Temp: 9.3°C   Baro: 1005.7mb
  Wind: 4.9mph   Dir: S (185°)
  Rain: 0.4mm (0.0mm/hr)
  Sun: 0W/m2  Humidity: 93%

Historic data

Bath Spa Weather Station Historical Data
Daily Summary for October 8, 2022 Units:  Both    English   Metric
Daily Weekly Monthly Yearly Custom
  High: Low: Average:
Temperature: 61.4 °F /  16.3 °C 42.1 °F /  5.6 °C 51 °F /  10.6 °C
Dew Point: 50.4 °F /  10.2 °C 40.3 °F /  4.6 °C 45 °F /  7.2 °C
Humidity: 94% 55.8% 81%
Wind Speed: 8.2mph /  13.2km/h - 2mph /  3.2km/h
Wind Gust: 13mph /  20.9km/h - -
Wind- - West
Pressure: 30.28 in /  1025.3 hPa 30.11 in /  1019.5 hPa -
Precipitation: 0.00 in /  0 mm    
Historical Graphs
 
 
Tabular Data for October 8, 2022
Time Temperature Dew Point Pressure Wind Wind Speed Wind Gust Humidity Rainfall Rate (Hourly) solar
00:09 49.5 °F /  9.7 °C 46.6 °F /  8.1 °C 30.11in /  1019.5hPa West 2.6mph /  4.2km/h 5mph /  8km/h 90% 0.00in /  0mm 0 W/m2
00:14 49.5 °F /  9.7 °C 46.6 °F /  8.1 °C 30.12in /  1019.9hPa West 3mph /  4.8km/h 5mph /  8km/h 90% 0.00in /  0mm 0 W/m2
00:19 49.5 °F /  9.7 °C 46.6 °F /  8.1 °C 30.12in /  1019.9hPa WNW 2.5mph /  4km/h 5mph /  8km/h 90% 0.00in /  0mm 0 W/m2
00:24 49.5 °F /  9.7 °C 46.6 °F /  8.1 °C 30.12in /  1019.9hPa WNW 2.6mph /  4.2km/h 4mph /  6.4km/h 90% 0.00in /  0mm 0 W/m2
00:29 49.4 °F /  9.7 °C 46.5 °F /  8.1 °C 30.12in /  1019.9hPa WNW 2mph /  3.2km/h 4mph /  6.4km/h 90% 0.00in /  0mm 0 W/m2
00:34 49.5 °F /  9.7 °C 46.6 °F /  8.1 °C 30.12in /  1019.9hPa WNW 2.9mph /  4.7km/h 5mph /  8km/h 90% 0.00in /  0mm 0 W/m2
00:39 49.5 °F /  9.7 °C 46.6 °F /  8.1 °C 30.12in /  1019.9hPa WNW 2.5mph /  4km/h 5mph /  8km/h 90% 0.00in /  0mm 0 W/m2
00:44 49.5 °F /  9.7 °C 46.6 °F /  8.1 °C 30.12in /  1019.9hPa WNW 3.6mph /  5.8km/h 6mph /  9.7km/h 89.6% 0.00in /  0mm 0 W/m2
00:49 49.6 °F /  9.8 °C 46.6 °F /  8.1 °C 30.12in /  1019.9hPa West 3.8mph /  6.1km/h 7mph /  11.3km/h 89.2% 0.00in /  0mm 0 W/m2
00:54 49.6 °F /  9.8 °C 46.6 °F /  8.1 °C 30.12in /  1019.9hPa West 4mph /  6.4km/h 7mph /  11.3km/h 89% 0.00in /  0mm 0 W/m2
00:59 49.6 °F /  9.8 °C 46.6 °F /  8.1 °C 30.13in /  1020.2hPa West 4.1mph /  6.6km/h 6mph /  9.7km/h 89% 0.00in /  0mm 0 W/m2
01:04 49.4 °F /  9.7 °C 46.1 °F /  7.8 °C 30.13in /  1020.2hPa West 4.1mph /  6.6km/h 6mph /  9.7km/h 88.4% 0.00in /  0mm 0 W/m2
01:09 49.1 °F /  9.5 °C 45.7 °F /  7.6 °C 30.13in /  1020.2hPa West 1.5mph /  2.4km/h 5mph /  8km/h 88% 0.00in /  0mm 0 W/m2
01:14 48.8 °F /  9.3 °C 45.4 °F /  7.4 °C 30.14in /  1020.5hPa West 1.3mph /  2.1km/h 4mph /  6.4km/h 88% 0.00in /  0mm 0 W/m2
01:19 48.6 °F /  9.2 °C 45.2 °F /  7.3 °C 30.13in /  1020.2hPa West 0.2mph /  0.3km/h 1mph /  1.6km/h 88% 0.00in /  0mm 0 W/m2
01:24 48.4 °F /  9.1 °C 44.9 °F /  7.2 °C 30.14in /  1020.5hPa Calm   1mph /  1.6km/h 88% 0.00in /  0mm 0 W/m2
01:29 47.9 °F /  8.8 °C 44.5 °F /  6.9 °C 30.14in /  1020.5hPa Calm     88% 0.00in /  0mm 0 W/m2
01:34 47.7 °F /  8.7 °C 44.3 °F /  6.8 °C 30.14in /  1020.5hPa West 0.6mph /  1km/h 2mph /  3.2km/h 88% 0.00in /  0mm 0 W/m2
01:39 47.4 °F /  8.6 °C 44 °F /  6.7 °C 30.14in /  1020.5hPa West 0.4mph /  0.6km/h 2mph /  3.2km/h 88% 0.00in /  0mm 0 W/m2
01:44 47.1 °F /  8.4 °C 43.7 °F /  6.5 °C 30.14in /  1020.5hPa Calm     88.2% 0.00in /  0mm 0 W/m2
01:49 46.9 °F /  8.3 °C 43.5 °F /  6.4 °C 30.14in /  1020.5hPa Calm     88% 0.00in /  0mm 0 W/m2
01:54 46.8 °F /  8.2 °C 43.7 °F /  6.5 °C 30.15in /  1020.9hPa West 0.2mph /  0.3km/h 2mph /  3.2km/h 89% 0.00in /  0mm 0 W/m2
01:59 46.6 °F /  8.1 °C 43.5 °F /  6.4 °C 30.15in /  1020.9hPa West 0.2mph /  0.3km/h 2mph /  3.2km/h 89% 0.00in /  0mm 0 W/m2
02:04 46.2 °F /  7.9 °C 43.2 °F /  6.2 °C 30.15in /  1020.9hPa Calm     89% 0.00in /  0mm 0 W/m2
02:09 46 °F /  7.8 °C 43 °F /  6.1 °C 30.15in /  1020.9hPa Calm     89% 0.00in /  0mm 0 W/m2
02:14 45.9 °F /  7.7 °C 42.8 °F /  6 °C 30.15in /  1020.9hPa Calm   2mph /  3.2km/h 89% 0.00in /  0mm 0 W/m2
02:19 45.7 °F /  7.6 °C 42.6 °F /  5.9 °C 30.15in /  1020.9hPa West 0.2mph /  0.3km/h 1mph /  1.6km/h 89% 0.00in /  0mm 0 W/m2
02:24 45.5 °F /  7.5 °C 42.7 °F /  5.9 °C 30.15in /  1020.9hPa West 1.3mph /  2.1km/h 2mph /  3.2km/h 89.8% 0.00in /  0mm 0 W/m2
02:29 45.3 °F /  7.4 °C 42.6 °F /  5.9 °C 30.15in /  1020.9hPa West 0.4mph /  0.6km/h 2mph /  3.2km/h 90% 0.00in /  0mm 0 W/m2
02:34 45.1 °F /  7.3 °C 42.4 °F /  5.8 °C 30.15in /  1020.9hPa Calm   1mph /  1.6km/h 90% 0.00in /  0mm 0 W/m2
02:39 45 °F /  7.2 °C 42.3 °F /  5.7 °C 30.15in /  1020.9hPa West 0.6mph /  1km/h 2mph /  3.2km/h 90% 0.00in /  0mm 0 W/m2
02:44 45 °F /  7.2 °C 42.3 °F /  5.7 °C 30.16in /  1021.2hPa West 1mph /  1.6km/h 3mph /  4.8km/h 90% 0.00in /  0mm 0 W/m2
02:49 44.8 °F /  7.1 °C 42.1 °F /  5.6 °C 30.16in /  1021.2hPa Calm   1mph /  1.6km/h 90% 0.00in /  0mm 0 W/m2
02:54 44.7 °F /  7.1 °C 42 °F /  5.6 °C 30.15in /  1020.9hPa Calm     90% 0.00in /  0mm 0 W/m2
02:59 44.5 °F /  6.9 °C 41.8 °F /  5.4 °C 30.16in /  1021.2hPa West 0.5mph /  0.8km/h 2mph /  3.2km/h 90% 0.00in /  0mm 0 W/m2
03:04 44.4 °F /  6.9 °C 41.8 °F /  5.4 °C 30.16in /  1021.2hPa West 2.5mph /  4km/h 3mph /  4.8km/h 90.6% 0.00in /  0mm 0 W/m2
03:09 44.4 °F /  6.9 °C 41.9 °F /  5.5 °C 30.16in /  1021.2hPa West 0.8mph /  1.3km/h 3mph /  4.8km/h 91% 0.00in /  0mm 0 W/m2
03:14 44.2 °F /  6.8 °C 41.7 °F /  5.4 °C 30.16in /  1021.2hPa West 0.9mph /  1.4km/h 2mph /  3.2km/h 91% 0.00in /  0mm 0 W/m2
03:19 44.2 °F /  6.8 °C 41.7 °F /  5.4 °C 30.16in /  1021.2hPa Calm   1mph /  1.6km/h 91% 0.00in /  0mm 0 W/m2
03:24 44.2 °F /  6.8 °C 41.6 °F /  5.3 °C 30.16in /  1021.2hPa Calm     91% 0.00in /  0mm 0 W/m2
03:29 44.1 °F /  6.7 °C 41.5 °F /  5.3 °C 30.16in /  1021.2hPa Calm     91% 0.00in /  0mm 0 W/m2
03:34 44 °F /  6.7 °C 41.4 °F /  5.2 °C 30.16in /  1021.2hPa West 0.2mph /  0.3km/h 1mph /  1.6km/h 91% 0.00in /  0mm 0 W/m2
03:39 43.8 °F /  6.6 °C 41.3 °F /  5.2 °C 30.16in /  1021.2hPa West 0.5mph /  0.8km/h 2mph /  3.2km/h 91% 0.00in /  0mm 0 W/m2
03:44 43.7 °F /  6.5 °C 41.2 °F /  5.1 °C 30.16in /  1021.2hPa West 1.5mph /  2.4km/h 3mph /  4.8km/h 91% 0.00in /  0mm 0 W/m2
03:49 43.8 °F /  6.6 °C 41.3 °F /  5.2 °C 30.16in /  1021.2hPa West 1.3mph /  2.1km/h 3mph /  4.8km/h 91% 0.00in /  0mm 0 W/m2
03:54 43.8 °F /  6.6 °C 41.3 °F /  5.2 °C 30.17in /  1021.6hPa West 1.2mph /  1.9km/h 3mph /  4.8km/h 91% 0.00in /  0mm 0 W/m2
03:59 43.7 °F /  6.5 °C 41.2 °F /  5.1 °C 30.17in /  1021.6hPa Calm   2mph /  3.2km/h 91% 0.00in /  0mm 0 W/m2
04:04 43.6 °F /  6.4 °C 41.2 °F /  5.1 °C 30.17in /  1021.6hPa West 0.2mph /  0.3km/h 2mph /  3.2km/h 91.4% 0.00in /  0mm 0 W/m2
04:09 43.5 °F /  6.4 °C 41.4 °F /  5.2 °C 30.17in /  1021.6hPa Calm   2mph /  3.2km/h 92% 0.00in /  0mm 0 W/m2
04:14 43.2 °F /  6.2 °C 41 °F /  5 °C 30.17in /  1021.6hPa West 1.2mph /  1.9km/h 3mph /  4.8km/h 92% 0.00in /  0mm 0 W/m2
04:19 43.3 °F /  6.3 °C 41.1 °F /  5.1 °C 30.17in /  1021.6hPa West 1.3mph /  2.1km/h 3mph /  4.8km/h 92% 0.00in /  0mm 0 W/m2
04:24 43.2 °F /  6.2 °C 41.1 °F /  5.1 °C 30.17in /  1021.6hPa West 0.4mph /  0.6km/h 1mph /  1.6km/h 92% 0.00in /  0mm 0 W/m2
04:29 43 °F /  6.1 °C 40.8 °F /  4.9 °C 30.17in /  1021.6hPa West 1.3mph /  2.1km/h 3mph /  4.8km/h 92% 0.00in /  0mm 0 W/m2
04:34 43 °F /  6.1 °C 40.8 °F /  4.9 °C 30.17in /  1021.6hPa West 0.2mph /  0.3km/h 2mph /  3.2km/h 92% 0.00in /  0mm 0 W/m2
04:39 43 °F /  6.1 °C 40.8 °F /  4.9 °C 30.17in /  1021.6hPa Calm     92% 0.00in /  0mm 0 W/m2
04:44 42.8 °F /  6 °C 40.6 °F /  4.8 °C 30.18in /  1021.9hPa West 0.2mph /  0.3km/h 1mph /  1.6km/h 92% 0.00in /  0mm 0 W/m2
04:49 42.6 °F /  5.9 °C 40.5 °F /  4.7 °C 30.18in /  1021.9hPa West 0.9mph /  1.4km/h 2mph /  3.2km/h 92% 0.00in /  0mm 0 W/m2
04:54 42.6 °F /  5.9 °C 40.5 °F /  4.7 °C 30.18in /  1021.9hPa West 1.8mph /  2.9km/h 2mph /  3.2km/h 92% 0.00in /  0mm 0 W/m2
04:59 42.5 °F /  5.8 °C 40.4 °F /  4.7 °C 30.18in /  1021.9hPa West 1.7mph /  2.7km/h 3mph /  4.8km/h 92% 0.00in /  0mm 0 W/m2
05:04 42.7 °F /  5.9 °C 40.6 °F /  4.8 °C 30.19in /  1022.2hPa West 2.7mph /  4.3km/h 3mph /  4.8km/h 92% 0.00in /  0mm 0 W/m2
05:09 43.5 °F /  6.4 °C 41.4 °F /  5.2 °C 30.19in /  1022.2hPa West 2.8mph /  4.5km/h 4mph /  6.4km/h 92.2% 0.00in /  0mm 0 W/m2
05:14 43.8 °F /  6.6 °C 41.8 °F /  5.4 °C 30.19in /  1022.2hPa WNW 1.8mph /  2.9km/h 5mph /  8km/h 92.8% 0.00in /  0mm 0 W/m2
05:19 43.5 °F /  6.4 °C 41.7 °F /  5.4 °C 30.19in /  1022.2hPa WNW 1.9mph /  3.1km/h 4mph /  6.4km/h 93% 0.00in /  0mm 0 W/m2
05:24 43.5 °F /  6.4 °C 41.7 °F /  5.4 °C 30.20in /  1022.6hPa WNW 2.7mph /  4.3km/h 4mph /  6.4km/h 93% 0.00in /  0mm 0 W/m2
05:29 43.6 °F /  6.4 °C 41.7 °F /  5.4 °C 30.20in /  1022.6hPa WNW 3mph /  4.8km/h 4mph /  6.4km/h 93% 0.00in /  0mm 0 W/m2
05:34 43.8 °F /  6.6 °C 41.8 °F /  5.4 °C 30.20in /  1022.6hPa WNW 2.7mph /  4.3km/h 4mph /  6.4km/h 93% 0.00in /  0mm 0 W/m2
05:39 43.9 °F /  6.6 °C 41.9 °F /  5.5 °C 30.20in /  1022.6hPa WNW 2.4mph /  3.9km/h 4mph /  6.4km/h 93% 0.00in /  0mm 0 W/m2
05:44 43.9 °F /  6.6 °C 41.9 °F /  5.5 °C 30.20in /  1022.6hPa WNW 2mph /  3.2km/h 3mph /  4.8km/h 93% 0.00in /  0mm 0 W/m2
05:49 43.7 °F /  6.5 °C 41.7 °F /  5.4 °C 30.20in /  1022.6hPa WNW 2.1mph /  3.4km/h 3mph /  4.8km/h 93% 0.00in /  0mm 0 W/m2
05:54 43.5 °F /  6.4 °C 41.7 °F /  5.4 °C 30.20in /  1022.6hPa WNW 2.1mph /  3.4km/h 3mph /  4.8km/h 93% 0.00in /  0mm 0 W/m2
05:59 43.5 °F /  6.4 °C 41.7 °F /  5.4 °C 30.20in /  1022.6hPa WNW 2.4mph /  3.9km/h 4mph /  6.4km/h 93% 0.00in /  0mm 0 W/m2
06:04 43.7 °F /  6.5 °C 41.7 °F /  5.4 °C 30.20in /  1022.6hPa WNW 2.2mph /  3.5km/h 4mph /  6.4km/h 93% 0.00in /  0mm 0 W/m2
06:09 43.9 °F /  6.6 °C 41.9 °F /  5.5 °C 30.21in /  1022.9hPa WNW 1.6mph /  2.6km/h 4mph /  6.4km/h 93% 0.00in /  0mm 0 W/m2
06:14 43.5 °F /  6.4 °C 41.7 °F /  5.4 °C 30.21in /  1022.9hPa WNW 1.7mph /  2.7km/h 3mph /  4.8km/h 93% 0.00in /  0mm 0 W/m2
06:19 43.3 °F /  6.3 °C 41.5 °F /  5.3 °C 30.21in /  1022.9hPa WNW 0.8mph /  1.3km/h 2mph /  3.2km/h 93% 0.00in /  0mm 0 W/m2
06:24 43 °F /  6.1 °C 41.2 °F /  5.1 °C 30.21in /  1022.9hPa WNW 0.8mph /  1.3km/h 2mph /  3.2km/h 93% 0.00in /  0mm 0 W/m2
06:29 42.6 °F /  5.9 °C 40.8 °F /  4.9 °C 30.22in /  1023.2hPa WNW 0.2mph /  0.3km/h 2mph /  3.2km/h 93% 0.00in /  0mm 0 W/m2
06:34 42.5 °F /  5.8 °C 40.7 °F /  4.8 °C 30.22in /  1023.2hPa WNW 0.8mph /  1.3km/h 2mph /  3.2km/h 93% 0.00in /  0mm 0 W/m2
06:39 42.5 °F /  5.8 °C 40.7 °F /  4.8 °C 30.22in /  1023.2hPa WNW 0.5mph /  0.8km/h 3mph /  4.8km/h 93% 0.00in /  0mm 0 W/m2
06:44 42.6 °F /  5.9 °C 40.8 °F /  4.9 °C 30.22in /  1023.2hPa WNW 0.4mph /  0.6km/h 2mph /  3.2km/h 93% 0.00in /  0mm 0 W/m2
06:49 42.5 °F /  5.8 °C 40.7 °F /  4.8 °C 30.22in /  1023.2hPa Calm   1mph /  1.6km/h 93% 0.00in /  0mm 0 W/m2
06:54 42.4 °F /  5.8 °C 40.6 °F /  4.8 °C 30.22in /  1023.2hPa Calm     93% 0.00in /  0mm 0 W/m2
06:59 42.3 °F /  5.7 °C 40.5 °F /  4.7 °C 30.22in /  1023.2hPa WNW 0.5mph /  0.8km/h 2mph /  3.2km/h 93% 0.00in /  0mm 0 W/m2
07:04 42.1 °F /  5.6 °C 40.3 °F /  4.6 °C 30.22in /  1023.2hPa WNW 0.9mph /  1.4km/h 3mph /  4.8km/h 93% 0.00in /  0mm 0 W/m2
07:09 42.2 °F /  5.7 °C 40.4 °F /  4.7 °C 30.23in /  1023.6hPa WNW 1mph /  1.6km/h 2mph /  3.2km/h 93% 0.00in /  0mm 0 W/m2
07:14 42.4 °F /  5.8 °C 40.6 °F /  4.8 °C 30.23in /  1023.6hPa WNW 1.3mph /  2.1km/h 2mph /  3.2km/h 93% 0.00in /  0mm 0 W/m2
07:19 42.4 °F /  5.8 °C 40.6 °F /  4.8 °C 30.23in /  1023.6hPa WNW 1.3mph /  2.1km/h 2mph /  3.2km/h 93% 0.00in /  0mm 0 W/m2
07:24 42.7 °F /  5.9 °C 40.9 °F /  4.9 °C 30.23in /  1023.6hPa WNW 2.5mph /  4km/h 4mph /  6.4km/h 93% 0.00in /  0mm 5 W/m2
07:29 43.2 °F /  6.2 °C 41.4 °F /  5.2 °C 30.23in /  1023.6hPa WNW 2mph /  3.2km/h 4mph /  6.4km/h 93% 0.00in /  0mm 7 W/m2
07:34 43.3 °F /  6.3 °C 41.5 °F /  5.3 °C 30.23in /  1023.6hPa Calm   2mph /  3.2km/h 93% 0.00in /  0mm 9 W/m2
07:39 43.1 °F /  6.2 °C 41.3 °F /  5.2 °C 30.24in /  1023.9hPa WNW 0.2mph /  0.3km/h 2mph /  3.2km/h 93% 0.00in /  0mm 11 W/m2
07:44 43.1 °F /  6.2 °C 41.3 °F /  5.2 °C 30.24in /  1023.9hPa NW 2.5mph /  4km/h 5mph /  8km/h 93% 0.00in /  0mm 12 W/m2
07:49 43.7 °F /  6.5 °C 41.9 °F /  5.5 °C 30.24in /  1023.9hPa NW 2mph /  3.2km/h 4mph /  6.4km/h 93.4% 0.00in /  0mm 16 W/m2
07:54 44.1 °F /  6.7 °C 42.1 °F /  5.6 °C 30.24in /  1023.9hPa NW 1.1mph /  1.8km/h 3mph /  4.8km/h 93% 0.00in /  0mm 18 W/m2
07:59 44.2 °F /  6.8 °C 42.6 °F /  5.9 °C 30.24in /  1023.9hPa NW 0.2mph /  0.3km/h 2mph /  3.2km/h 94% 0.00in /  0mm 19 W/m2
08:04 44.2 °F /  6.8 °C 42.6 °F /  5.9 °C 30.24in /  1023.9hPa NW 0.2mph /  0.3km/h 2mph /  3.2km/h 94% 0.00in /  0mm 21 W/m2
08:09 43.9 °F /  6.6 °C 42 °F /  5.6 °C 30.24in /  1023.9hPa NW 0.2mph /  0.3km/h 1mph /  1.6km/h 93.2% 0.00in /  0mm 21 W/m2
08:14 43.7 °F /  6.5 °C 42.1 °F /  5.6 °C 30.25in /  1024.3hPa Calm   1mph /  1.6km/h 94% 0.00in /  0mm 23 W/m2
08:19 43.8 °F /  6.6 °C 42.1 °F /  5.6 °C 30.25in /  1024.3hPa NW 1mph /  1.6km/h 4mph /  6.4km/h 93.6% 0.00in /  0mm 25 W/m2
08:24 44.7 °F /  7.1 °C 43.1 °F /  6.2 °C 30.25in /  1024.3hPa NW 2.2mph /  3.5km/h 3mph /  4.8km/h 94% 0.00in /  0mm 26 W/m2
08:29 45.6 °F /  7.6 °C 44 °F /  6.7 °C 30.25in /  1024.3hPa NW 1.5mph /  2.4km/h 4mph /  6.4km/h 94% 0.00in /  0mm 28 W/m2
08:34 46.1 °F /  7.8 °C 44.4 °F /  6.9 °C 30.25in /  1024.3hPa NW 1.8mph /  2.9km/h 4mph /  6.4km/h 94% 0.00in /  0mm 33 W/m2
08:39 46.5 °F /  8.1 °C 44.9 °F /  7.2 °C 30.25in /  1024.3hPa NW 2.4mph /  3.9km/h 4mph /  6.4km/h 94% 0.00in /  0mm 39 W/m2
08:44 46.9 °F /  8.3 °C 45.3 °F /  7.4 °C 30.25in /  1024.3hPa NW 1.6mph /  2.6km/h 4mph /  6.4km/h 94% 0.00in /  0mm 54 W/m2
08:49 47.2 °F /  8.4 °C 45.6 °F /  7.6 °C 30.25in /  1024.3hPa WNW 2.3mph /  3.7km/h 5mph /  8km/h 94% 0.00in /  0mm 67 W/m2
08:54 47.6 °F /  8.7 °C 45.9 °F /  7.7 °C 30.25in /  1024.3hPa WNW 2.2mph /  3.5km/h 5mph /  8km/h 94% 0.00in /  0mm 77 W/m2
08:59 47.8 °F /  8.8 °C 46.2 °F /  7.9 °C 30.26in /  1024.6hPa West 3.4mph /  5.5km/h 7mph /  11.3km/h 94% 0.00in /  0mm 93 W/m2
09:04 48.4 °F /  9.1 °C 46.7 °F /  8.2 °C 30.26in /  1024.6hPa WNW 3.9mph /  6.3km/h 6mph /  9.7km/h 93.8% 0.00in /  0mm 105 W/m2
09:09 48.8 °F /  9.3 °C 46.9 °F /  8.3 °C 30.26in /  1024.6hPa WNW 2.6mph /  4.2km/h 6mph /  9.7km/h 93.2% 0.00in /  0mm 121 W/m2
09:14 49.2 °F /  9.6 °C 47.2 °F /  8.4 °C 30.26in /  1024.6hPa WNW 3.6mph /  5.8km/h 7mph /  11.3km/h 93% 0.00in /  0mm 135 W/m2
09:19 49.4 °F /  9.7 °C 47.4 °F /  8.6 °C 30.26in /  1024.6hPa West 2.6mph /  4.2km/h 7mph /  11.3km/h 93% 0.00in /  0mm 149 W/m2
09:24 49.6 °F /  9.8 °C 47.6 °F /  8.7 °C 30.26in /  1024.6hPa WNW 4.5mph /  7.2km/h 8mph /  12.9km/h 93% 0.00in /  0mm 165 W/m2
09:29 49.7 °F /  9.8 °C 47.7 °F /  8.7 °C 30.27in /  1024.9hPa West 2.9mph /  4.7km/h 6mph /  9.7km/h 93% 0.00in /  0mm 181 W/m2
09:34 50.2 °F /  10.1 °C 48.1 °F /  8.9 °C 30.27in /  1024.9hPa West 3.7mph /  6km/h 6mph /  9.7km/h 92.6% 0.00in /  0mm 190 W/m2
09:39 50.4 °F /  10.2 °C 48.3 °F /  9.1 °C 30.27in /  1024.9hPa West 3.3mph /  5.3km/h 6mph /  9.7km/h 92% 0.00in /  0mm 204 W/m2
09:44 50.9 °F /  10.5 °C 48.7 °F /  9.3 °C 30.27in /  1024.9hPa West 2.1mph /  3.4km/h 6mph /  9.7km/h 92% 0.00in /  0mm 218 W/m2
09:49 51.1 °F /  10.6 °C 48.8 °F /  9.3 °C 30.27in /  1024.9hPa West 4mph /  6.4km/h 7mph /  11.3km/h 91.8% 0.00in /  0mm 230 W/m2
09:54 51.4 °F /  10.8 °C 48.9 °F /  9.4 °C 30.27in /  1024.9hPa West 2.3mph /  3.7km/h 6mph /  9.7km/h 91% 0.00in /  0mm 243 W/m2
09:59 51.9 °F /  11.1 °C 49.4 °F /  9.7 °C 30.27in /  1024.9hPa West 2.9mph /  4.7km/h 7mph /  11.3km/h 91% 0.00in /  0mm 255 W/m2
10:04 52.3 °F /  11.3 °C 49.5 °F /  9.7 °C 30.27in /  1024.9hPa West 2.2mph /  3.5km/h 5mph /  8km/h 90.2% 0.00in /  0mm 265 W/m2
10:09 52.8 °F /  11.6 °C 49.8 °F /  9.9 °C 30.27in /  1024.9hPa West 1.4mph /  2.3km/h 5mph /  8km/h 89.6% 0.00in /  0mm 279 W/m2
10:14 53.6 °F /  12 °C 50.3 °F /  10.2 °C 30.27in /  1024.9hPa WSW 2.5mph /  4km/h 5mph /  8km/h 88.8% 0.00in /  0mm 290 W/m2
10:19 53.9 °F /  12.2 °C 50.4 °F /  10.2 °C 30.27in /  1024.9hPa WSW 2.1mph /  3.4km/h 5mph /  8km/h 88% 0.00in /  0mm 306 W/m2
10:24 53.8 °F /  12.1 °C 49.9 °F /  9.9 °C 30.27in /  1024.9hPa West 5.1mph /  8.2km/h 8mph /  12.9km/h 86.8% 0.00in /  0mm 313 W/m2
10:29 53.8 °F /  12.1 °C 49.7 °F /  9.8 °C 30.28in /  1025.3hPa WSW 4.4mph /  7.1km/h 7mph /  11.3km/h 86% 0.00in /  0mm 323 W/m2
10:34 54.2 °F /  12.3 °C 49.8 °F /  9.9 °C 30.28in /  1025.3hPa WSW 2.2mph /  3.5km/h 6mph /  9.7km/h 85% 0.00in /  0mm 334 W/m2
10:39 54.5 °F /  12.5 °C 49.9 °F /  9.9 °C 30.28in /  1025.3hPa West 4.2mph /  6.8km/h 7mph /  11.3km/h 84.4% 0.00in /  0mm 346 W/m2
10:44 54.7 °F /  12.6 °C 49.8 °F /  9.9 °C 30.28in /  1025.3hPa WSW 3.3mph /  5.3km/h 6mph /  9.7km/h 83.4% 0.00in /  0mm 360 W/m2
10:49 55.1 °F /  12.8 °C 49.8 °F /  9.9 °C 30.28in /  1025.3hPa West 4mph /  6.4km/h 7mph /  11.3km/h 82.4% 0.00in /  0mm 373 W/m2
10:54 55 °F /  12.8 °C 49.5 °F /  9.7 °C 30.28in /  1025.3hPa WNW 2.2mph /  3.5km/h 6mph /  9.7km/h 81.5% 0.00in /  0mm 380 W/m2
10:59 55.4 °F /  13 °C 49.7 °F /  9.8 °C 30.28in /  1025.3hPa WNW 2.2mph /  3.5km/h 6mph /  9.7km/h 81.2% 0.00in /  0mm 390 W/m2
11:04 55.6 °F /  13.1 °C 49.6 °F /  9.8 °C 30.28in /  1025.3hPa WNW 3.7mph /  6km/h 7mph /  11.3km/h 80.2% 0.00in /  0mm 397 W/m2
11:09 55.8 °F /  13.2 °C 49.3 °F /  9.6 °C 30.28in /  1025.3hPa WNW 3.8mph /  6.1km/h 6mph /  9.7km/h 79% 0.00in /  0mm 406 W/m2
11:14 56.3 °F /  13.5 °C 49.5 °F /  9.7 °C 30.28in /  1025.3hPa WNW 2.7mph /  4.3km/h 5mph /  8km/h 78.4% 0.00in /  0mm 420 W/m2
11:19 56.5 °F /  13.6 °C 49.1 °F /  9.5 °C 30.28in /  1025.3hPa West 2.8mph /  4.5km/h 7mph /  11.3km/h 76.6% 0.00in /  0mm 431 W/m2
11:24 56.9 °F /  13.8 °C 49.4 °F /  9.7 °C 30.28in /  1025.3hPa WSW 2.5mph /  4km/h 7mph /  11.3km/h 76% 0.00in /  0mm 441 W/m2
11:29 57.5 °F /  14.2 °C 49.3 °F /  9.6 °C 30.28in /  1025.3hPa WNW 4.2mph /  6.8km/h 7mph /  11.3km/h 74.4% 0.00in /  0mm 445 W/m2
11:34 57.2 °F /  14 °C 48.7 °F /  9.3 °C 30.28in /  1025.3hPa West 3.7mph /  6km/h 7mph /  11.3km/h 73.2% 0.00in /  0mm 452 W/m2
11:39 57 °F /  13.9 °C 48.1 °F /  8.9 °C 30.28in /  1025.3hPa WNW 4.3mph /  6.9km/h 7mph /  11.3km/h 72.2% 0.00in /  0mm 455 W/m2
11:44 57.1 °F /  13.9 °C 48.4 °F /  9.1 °C 30.28in /  1025.3hPa West 3.5mph /  5.6km/h 9mph /  14.5km/h 72.8% 0.00in /  0mm 466 W/m2
11:49 57.4 °F /  14.1 °C 48.4 °F /  9.1 °C 30.28in /  1025.3hPa West 6.4mph /  10.3km/h 9mph /  14.5km/h 72% 0.00in /  0mm 473 W/m2
11:54 57.4 °F /  14.1 °C 48 °F /  8.9 °C 30.28in /  1025.3hPa WNW 5.2mph /  8.4km/h 10mph /  16.1km/h 71% 0.00in /  0mm 482 W/m2
11:59 57.6 °F /  14.2 °C 48.3 °F /  9.1 °C 30.28in /  1025.3hPa WNW 3.3mph /  5.3km/h 7mph /  11.3km/h 71.2% 0.00in /  0mm 503 W/m2
12:04 57.6 °F /  14.2 °C 48.1 °F /  8.9 °C 30.28in /  1025.3hPa WNW 2.8mph /  4.5km/h 9mph /  14.5km/h 70.8% 0.00in /  0mm 506 W/m2
12:09 57.8 °F /  14.3 °C 48.5 °F /  9.2 °C 30.28in /  1025.3hPa WNW 3.1mph /  5km/h 6mph /  9.7km/h 71% 0.00in /  0mm 522 W/m2
12:14 57.9 °F /  14.4 °C 47.9 °F /  8.8 °C 30.28in /  1025.3hPa WNW 3.8mph /  6.1km/h 7mph /  11.3km/h 69.4% 0.00in /  0mm 568 W/m2
12:19 57.7 °F /  14.3 °C 47.8 °F /  8.8 °C 30.28in /  1025.3hPa WNW 4.9mph /  7.9km/h 8mph /  12.9km/h 69.2% 0.00in /  0mm 520 W/m2
12:24 57.9 °F /  14.4 °C 47.8 °F /  8.8 °C 30.28in /  1025.3hPa WNW 3.7mph /  6km/h 7mph /  11.3km/h 68.8% 0.00in /  0mm 527 W/m2
12:29 58.5 °F /  14.7 °C 48.1 °F /  8.9 °C 30.28in /  1025.3hPa West 3.6mph /  5.8km/h 9mph /  14.5km/h 68.2% 0.00in /  0mm 545 W/m2
12:34 59.2 °F /  15.1 °C 48.2 °F /  9 °C 30.28in /  1025.3hPa West 3mph /  4.8km/h 8mph /  12.9km/h 67% 0.00in /  0mm 519 W/m2
12:39 59 °F /  15 °C 48.9 °F /  9.4 °C 30.28in /  1025.3hPa WNW 4.9mph /  7.9km/h 7mph /  11.3km/h 69% 0.00in /  0mm 487 W/m2
12:44 59.2 °F /  15.1 °C 49.1 °F /  9.5 °C 30.28in /  1025.3hPa West 4.9mph /  7.9km/h 8mph /  12.9km/h 69.2% 0.00in /  0mm 524 W/m2
12:49 59 °F /  15 °C 48.9 °F /  9.4 °C 30.28in /  1025.3hPa West 5.7mph /  9.2km/h 10mph /  16.1km/h 69% 0.00in /  0mm 531 W/m2
12:54 58.6 °F /  14.8 °C 48.6 °F /  9.2 °C 30.28in /  1025.3hPa West 5.3mph /  8.5km/h 10mph /  16.1km/h 69% 0.00in /  0mm 533 W/m2
12:59 58.3 °F /  14.6 °C 48.3 °F /  9.1 °C 30.28in /  1025.3hPa West 5.1mph /  8.2km/h 8mph /  12.9km/h 69.4% 0.00in /  0mm 114 W/m2
13:04 58.1 °F /  14.5 °C 48 °F /  8.9 °C 30.28in /  1025.3hPa West 4.9mph /  7.9km/h 8mph /  12.9km/h 69% 0.00in /  0mm 550 W/m2
13:09 58.6 °F /  14.8 °C 48.6 °F /  9.2 °C 30.28in /  1025.3hPa West 3.3mph /  5.3km/h 8mph /  12.9km/h 69.2% 0.00in /  0mm 559 W/m2
13:14 59.2 °F /  15.1 °C 48.8 °F /  9.3 °C 30.28in /  1025.3hPa West 3.3mph /  5.3km/h 8mph /  12.9km/h 68.4% 0.00in /  0mm 577 W/m2
13:19 59.4 °F /  15.2 °C 48.8 °F /  9.3 °C 30.28in /  1025.3hPa WNW 5.6mph /  9km/h 10mph /  16.1km/h 68.2% 0.00in /  0mm 577 W/m2
13:24 59.2 °F /  15.1 °C 48.6 °F /  9.2 °C 30.28in /  1025.3hPa WNW 3.3mph /  5.3km/h 8mph /  12.9km/h 68% 0.00in /  0mm 587 W/m2
13:29 59.5 °F /  15.3 °C 48.7 °F /  9.3 °C 30.28in /  1025.3hPa West 6mph /  9.7km/h 9mph /  14.5km/h 67.6% 0.00in /  0mm 446 W/m2
13:34 58.9 °F /  14.9 °C 48.2 °F /  9 °C 30.28in /  1025.3hPa West 2.3mph /  3.7km/h 8mph /  12.9km/h 67.8% 0.00in /  0mm 448 W/m2
13:39 58.8 °F /  14.9 °C 48.8 °F /  9.3 °C 30.28in /  1025.3hPa West 2.7mph /  4.3km/h 6mph /  9.7km/h 69.2% 0.00in /  0mm 448 W/m2
13:44 58.7 °F /  14.8 °C 48.9 °F /  9.4 °C 30.28in /  1025.3hPa West 3.5mph /  5.6km/h 6mph /  9.7km/h 69.8% 0.00in /  0mm 100 W/m2
13:49 58.4 °F /  14.7 °C 48.7 °F /  9.3 °C 30.28in /  1025.3hPa West 4.4mph /  7.1km/h 8mph /  12.9km/h 70% 0.00in /  0mm 93 W/m2
13:54 58.3 °F /  14.6 °C 48.8 °F /  9.3 °C 30.28in /  1025.3hPa West 5.4mph /  8.7km/h 11mph /  17.7km/h 70.6% 0.00in /  0mm 536 W/m2
13:59 58.8 °F /  14.9 °C 49.1 °F /  9.5 °C 30.28in /  1025.3hPa West 6mph /  9.7km/h 12mph /  19.3km/h 70% 0.00in /  0mm 536 W/m2
14:04 58.9 °F /  14.9 °C 48.7 °F /  9.3 °C 30.28in /  1025.3hPa West 4.2mph /  6.8km/h 10mph /  16.1km/h 68.8% 0.00in /  0mm 536 W/m2
14:09 59.4 °F /  15.2 °C 49 °F /  9.4 °C 30.28in /  1025.3hPa West 5.2mph /  8.4km/h 10mph /  16.1km/h 68.4% 0.00in /  0mm 503 W/m2
14:14 60 °F /  15.6 °C 49 °F /  9.4 °C 30.27in /  1024.9hPa West 4.1mph /  6.6km/h 8mph /  12.9km/h 67% 0.00in /  0mm 494 W/m2
14:19 60.9 °F /  16.1 °C 49.3 °F /  9.6 °C 30.27in /  1024.9hPa WSW 6.3mph /  10.1km/h 11mph /  17.7km/h 65.6% 0.00in /  0mm 492 W/m2
14:24 60.8 °F /  16 °C 48.5 °F /  9.2 °C 30.28in /  1025.3hPa SW 7.2mph /  11.6km/h 13mph /  20.9km/h 64% 0.00in /  0mm 506 W/m2
14:29 60.8 °F /  16 °C 48.9 °F /  9.4 °C 30.28in /  1025.3hPa West 5.1mph /  8.2km/h 12mph /  19.3km/h 65% 0.00in /  0mm 517 W/m2
14:34 61.2 °F /  16.2 °C 49 °F /  9.4 °C 30.27in /  1024.9hPa SW 3.7mph /  6km/h 8mph /  12.9km/h 64.2% 0.00in /  0mm 496 W/m2
14:39 61.4 °F /  16.3 °C 49 °F /  9.4 °C 30.27in /  1024.9hPa WNW 4.5mph /  7.2km/h 12mph /  19.3km/h 63.6% 0.00in /  0mm 526 W/m2
14:44 60.2 °F /  15.7 °C 48.2 °F /  9 °C 30.27in /  1024.9hPa WNW 6mph /  9.7km/h 12mph /  19.3km/h 64.6% 0.00in /  0mm 522 W/m2
14:49 59.7 °F /  15.4 °C 48.3 °F /  9.1 °C 30.27in /  1024.9hPa West 6mph /  9.7km/h 13mph /  20.9km/h 65.8% 0.00in /  0mm 524 W/m2
14:54 59.5 °F /  15.3 °C 48 °F /  8.9 °C 30.27in /  1024.9hPa WNW 4.8mph /  7.7km/h 10mph /  16.1km/h 65.6% 0.00in /  0mm 508 W/m2
14:59 59.8 °F /  15.4 °C 48.3 °F /  9.1 °C 30.27in /  1024.9hPa West 4.7mph /  7.6km/h 8mph /  12.9km/h 65.6% 0.00in /  0mm 461 W/m2
15:04 60.3 °F /  15.7 °C 48.1 °F /  8.9 °C 30.28in /  1025.3hPa West 6.8mph /  10.9km/h 10mph /  16.1km/h 64% 0.00in /  0mm 441 W/m2
15:09 60.2 °F /  15.7 °C 47.8 °F /  8.8 °C 30.27in /  1024.9hPa West 6.6mph /  10.6km/h 11mph /  17.7km/h 63.6% 0.00in /  0mm 432 W/m2
15:14 60.2 °F /  15.7 °C 48.3 °F /  9.1 °C 30.27in /  1024.9hPa West 5.2mph /  8.4km/h 9mph /  14.5km/h 64.8% 0.00in /  0mm 427 W/m2
15:19 60.2 °F /  15.7 °C 48.6 °F /  9.2 °C 30.27in /  1024.9hPa West 6.3mph /  10.1km/h 11mph /  17.7km/h 65.6% 0.00in /  0mm 415 W/m2
15:24 60.1 °F /  15.6 °C 48.7 °F /  9.3 °C 30.27in /  1024.9hPa West 5.2mph /  8.4km/h 11mph /  17.7km/h 66% 0.00in /  0mm 410 W/m2
15:29 59.9 °F /  15.5 °C 48.4 °F /  9.1 °C 30.27in /  1024.9hPa West 5.3mph /  8.5km/h 10mph /  16.1km/h 65.8% 0.00in /  0mm 404 W/m2
15:34 59.4 °F /  15.2 °C 48.3 °F /  9.1 °C 30.27in /  1024.9hPa West 4.9mph /  7.9km/h 10mph /  16.1km/h 66.6% 0.00in /  0mm 279 W/m2
15:39 59.4 °F /  15.2 °C 48.7 °F /  9.3 °C 30.27in /  1024.9hPa West 3.8mph /  6.1km/h 7mph /  11.3km/h 68% 0.00in /  0mm 213 W/m2
15:44 59.8 °F /  15.4 °C 49.2 °F /  9.6 °C 30.27in /  1024.9hPa West 2.8mph /  4.5km/h 7mph /  11.3km/h 68% 0.00in /  0mm 399 W/m2
15:49 60.3 °F /  15.7 °C 49.4 °F /  9.7 °C 30.27in /  1024.9hPa West 3.3mph /  5.3km/h 6mph /  9.7km/h 67% 0.00in /  0mm 399 W/m2
15:54 60.6 °F /  15.9 °C 48.8 °F /  9.3 °C 30.27in /  1024.9hPa West 6.2mph /  10km/h 13mph /  20.9km/h 65% 0.00in /  0mm 436 W/m2
15:59 60.8 °F /  16 °C 48.1 °F /  8.9 °C 30.26in /  1024.6hPa West 4.4mph /  7.1km/h 11mph /  17.7km/h 62.6% 0.00in /  0mm 425 W/m2
16:04 61.2 °F /  16.2 °C 46.8 °F /  8.2 °C 30.26in /  1024.6hPa West 6.4mph /  10.3km/h 12mph /  19.3km/h 59.2% 0.00in /  0mm 373 W/m2
16:09 61 °F /  16.1 °C 46.2 °F /  7.9 °C 30.26in /  1024.6hPa WSW 6mph /  9.7km/h 10mph /  16.1km/h 58.2% 0.00in /  0mm 339 W/m2
16:14 61.1 °F /  16.2 °C 46.3 °F /  7.9 °C 30.26in /  1024.6hPa West 6mph /  9.7km/h 10mph /  16.1km/h 58.2% 0.00in /  0mm 313 W/m2
16:19 61 °F /  16.1 °C 46 °F /  7.8 °C 30.26in /  1024.6hPa WSW 5.3mph /  8.5km/h 11mph /  17.7km/h 58% 0.00in /  0mm 290 W/m2
16:24 60.9 °F /  16.1 °C 45.4 °F /  7.4 °C 30.26in /  1024.6hPa WSW 5mph /  8km/h 11mph /  17.7km/h 56.6% 0.00in /  0mm 271 W/m2
16:29 61.1 °F /  16.2 °C 45.8 °F /  7.7 °C 30.26in /  1024.6hPa West 3.1mph /  5km/h 6mph /  9.7km/h 57.2% 0.00in /  0mm 260 W/m2
16:34 60.8 °F /  16 °C 45.3 °F /  7.4 °C 30.26in /  1024.6hPa West 8.2mph /  13.2km/h 11mph /  17.7km/h 56.6% 0.00in /  0mm 246 W/m2
16:39 60.3 °F /  15.7 °C 45.2 °F /  7.3 °C 30.26in /  1024.6hPa West 5.8mph /  9.3km/h 10mph /  16.1km/h 57.4% 0.00in /  0mm 241 W/m2
16:44 60.3 °F /  15.7 °C 45.5 °F /  7.5 °C 30.26in /  1024.6hPa West 4.5mph /  7.2km/h 9mph /  14.5km/h 58% 0.00in /  0mm 213 W/m2
16:49 60.1 °F /  15.6 °C 44.9 °F /  7.2 °C 30.25in /  1024.3hPa West 6mph /  9.7km/h 9mph /  14.5km/h 57.2% 0.00in /  0mm 200 W/m2
16:54 60.3 °F /  15.7 °C 44.9 °F /  7.2 °C 30.25in /  1024.3hPa West 3.3mph /  5.3km/h 8mph /  12.9km/h 57% 0.00in /  0mm 174 W/m2
16:59 60.4 °F /  15.8 °C 44.6 °F /  7 °C 30.25in /  1024.3hPa West 4mph /  6.4km/h 7mph /  11.3km/h 55.8% 0.00in /  0mm 165 W/m2
17:04 60.4 °F /  15.8 °C 44.6 °F /  7 °C 30.25in /  1024.3hPa WNW 3.9mph /  6.3km/h 7mph /  11.3km/h 56% 0.00in /  0mm 134 W/m2
17:09 60.1 °F /  15.6 °C 44.4 °F /  6.9 °C 30.25in /  1024.3hPa West 3.1mph /  5km/h 5mph /  8km/h 56% 0.00in /  0mm 109 W/m2
17:14 60.1 °F /  15.6 °C 44.6 °F /  7 °C 30.25in /  1024.3hPa West 2.4mph /  3.9km/h 4mph /  6.4km/h 56.6% 0.00in /  0mm 100 W/m2
17:19 60.2 °F /  15.7 °C 45.3 °F /  7.4 °C 30.25in /  1024.3hPa West 2.1mph /  3.4km/h 5mph /  8km/h 57.8% 0.00in /  0mm 107 W/m2
17:24 60.2 °F /  15.7 °C 44.8 °F /  7.1 °C 30.25in /  1024.3hPa WSW 3.3mph /  5.3km/h 6mph /  9.7km/h 56.8% 0.00in /  0mm 86 W/m2
17:29 59.9 °F /  15.5 °C 44.7 °F /  7.1 °C 30.25in /  1024.3hPa WSW 3.3mph /  5.3km/h 5mph /  8km/h 57.2% 0.00in /  0mm 84 W/m2
17:34 59.9 °F /  15.5 °C 45.2 °F /  7.3 °C 30.25in /  1024.3hPa WSW 1.7mph /  2.7km/h 4mph /  6.4km/h 58.2% 0.00in /  0mm 86 W/m2
17:39 60 °F /  15.6 °C 45.5 °F /  7.5 °C 30.25in /  1024.3hPa WSW 1.3mph /  2.1km/h 4mph /  6.4km/h 58.6% 0.00in /  0mm 74 W/m2
17:44 59.9 °F /  15.5 °C 45.9 °F /  7.7 °C 30.25in /  1024.3hPa SW 2.5mph /  4km/h 7mph /  11.3km/h 59.8% 0.00in /  0mm 60 W/m2
17:49 59.4 °F /  15.2 °C 45.9 °F /  7.7 °C 30.25in /  1024.3hPa SW 1.1mph /  1.8km/h 4mph /  6.4km/h 60.8% 0.00in /  0mm 46 W/m2
17:54 59 °F /  15 °C 45.8 °F /  7.7 °C 30.25in /  1024.3hPa SW 2.1mph /  3.4km/h 4mph /  6.4km/h 61.4% 0.00in /  0mm 33 W/m2
17:59 58.7 °F /  14.8 °C 46 °F /  7.8 °C 30.25in /  1024.3hPa SW 1.3mph /  2.1km/h 4mph /  6.4km/h 62.8% 0.00in /  0mm 30 W/m2
18:04 58.3 °F /  14.6 °C 46.1 °F /  7.8 °C 30.25in /  1024.3hPa SW 1.2mph /  1.9km/h 3mph /  4.8km/h 63.8% 0.00in /  0mm 25 W/m2
18:09 57.8 °F /  14.3 °C 46.1 °F /  7.8 °C 30.25in /  1024.3hPa SW 0.5mph /  0.8km/h 3mph /  4.8km/h 64.8% 0.00in /  0mm 19 W/m2
18:14 57.6 °F /  14.2 °C 46.1 °F /  7.8 °C 30.25in /  1024.3hPa SW 0.5mph /  0.8km/h 2mph /  3.2km/h 65.8% 0.00in /  0mm 16 W/m2
18:19 57.2 °F /  14 °C 46.4 °F /  8 °C 30.25in /  1024.3hPa SW 0.4mph /  0.6km/h 2mph /  3.2km/h 67% 0.00in /  0mm 12 W/m2
18:24 56.7 °F /  13.7 °C 46.5 °F /  8.1 °C 30.25in /  1024.3hPa SW 0.2mph /  0.3km/h 2mph /  3.2km/h 68.6% 0.00in /  0mm 9 W/m2
18:29 56.2 °F /  13.4 °C 46.7 °F /  8.2 °C 30.25in /  1024.3hPa SW 0.9mph /  1.4km/h 2mph /  3.2km/h 70.4% 0.00in /  0mm 5 W/m2
18:34 56 °F /  13.3 °C 47.1 °F /  8.4 °C 30.25in /  1024.3hPa SW 0.9mph /  1.4km/h 2mph /  3.2km/h 71.8% 0.00in /  0mm 5 W/m2
18:39 55.8 °F /  13.2 °C 47.2 °F /  8.4 °C 30.25in /  1024.3hPa SW 1.6mph /  2.6km/h 2mph /  3.2km/h 72.6% 0.00in /  0mm 0 W/m2
18:44 55.6 °F /  13.1 °C 47.4 °F /  8.6 °C 30.25in /  1024.3hPa SW 1.1mph /  1.8km/h 2mph /  3.2km/h 73.6% 0.00in /  0mm 0 W/m2
18:49 55.6 °F /  13.1 °C 47.7 °F /  8.7 °C 30.25in /  1024.3hPa SW 1.6mph /  2.6km/h 3mph /  4.8km/h 74.6% 0.00in /  0mm 0 W/m2
18:54 54.8 °F /  12.7 °C 47 °F /  8.3 °C 30.25in /  1024.3hPa SW 0.2mph /  0.3km/h 3mph /  4.8km/h 74.8% 0.00in /  0mm 0 W/m2
18:59 54.3 °F /  12.4 °C 46.9 °F /  8.3 °C 30.26in /  1024.6hPa SW 0.2mph /  0.3km/h 1mph /  1.6km/h 76% 0.00in /  0mm 0 W/m2
19:04 53.6 °F /  12 °C 46.4 °F /  8 °C 30.26in /  1024.6hPa Calm     76.4% 0.00in /  0mm 0 W/m2
19:08 54 °F /  12.2 °C 47.2 °F /  8.4 °C 30.26in /  1024.6hPa Calm     77.5% 0.00in /  0mm 0 W/m2
19:14 54.7 °F /  12.6 °C 47.7 °F /  8.7 °C 30.26in /  1024.6hPa Calm     77.2% 0.00in /  0mm 0 W/m2
19:19 53.8 °F /  12.1 °C 46.8 °F /  8.2 °C 30.26in /  1024.6hPa SW 1.2mph /  1.9km/h 3mph /  4.8km/h 77% 0.00in /  0mm 0 W/m2
19:24 53.1 °F /  11.7 °C 46 °F /  7.8 °C 30.26in /  1024.6hPa SW 0.8mph /  1.3km/h 3mph /  4.8km/h 77% 0.00in /  0mm 0 W/m2
19:29 52.9 °F /  11.6 °C 46.1 °F /  7.8 °C 30.26in /  1024.6hPa SW 0.2mph /  0.3km/h 1mph /  1.6km/h 77.6% 0.00in /  0mm 0 W/m2
19:34 52.7 °F /  11.5 °C 45.7 °F /  7.6 °C 30.26in /  1024.6hPa Calm     77% 0.00in /  0mm 0 W/m2
19:39 52.3 °F /  11.3 °C 45.7 °F /  7.6 °C 30.26in /  1024.6hPa Calm     78% 0.00in /  0mm 0 W/m2
19:44 52.2 °F /  11.2 °C 45.6 °F /  7.6 °C 30.26in /  1024.6hPa Calm     78% 0.00in /  0mm 0 W/m2
19:49 52 °F /  11.1 °C 45.3 °F /  7.4 °C 30.26in /  1024.6hPa Calm     78% 0.00in /  0mm 0 W/m2
19:54 51.7 °F /  10.9 °C 45.1 °F /  7.3 °C 30.26in /  1024.6hPa Calm     78% 0.00in /  0mm 0 W/m2
19:59 51.2 °F /  10.7 °C 44.6 °F /  7 °C 30.26in /  1024.6hPa Calm     78% 0.00in /  0mm 0 W/m2
20:04 50.7 °F /  10.4 °C 44.1 °F /  6.7 °C 30.26in /  1024.6hPa Calm     78% 0.00in /  0mm 0 W/m2
20:09 50.7 °F /  10.4 °C 44.1 °F /  6.7 °C 30.26in /  1024.6hPa Calm     78% 0.00in /  0mm 0 W/m2
20:14 50.4 °F /  10.2 °C 43.8 °F /  6.6 °C 30.26in /  1024.6hPa Calm     78% 0.00in /  0mm 0 W/m2
20:19 50.5 °F /  10.3 °C 43.8 °F /  6.6 °C 30.26in /  1024.6hPa Calm     78% 0.00in /  0mm 0 W/m2
20:24 50.4 °F /  10.2 °C 43.7 °F /  6.5 °C 30.26in /  1024.6hPa Calm     78% 0.00in /  0mm 0 W/m2
20:29 50.2 °F /  10.1 °C 43.8 °F /  6.6 °C 30.26in /  1024.6hPa Calm     78.6% 0.00in /  0mm 0 W/m2
20:34 50.2 °F /  10.1 °C 43.9 °F /  6.6 °C 30.26in /  1024.6hPa Calm     79% 0.00in /  0mm 0 W/m2
20:39 50.2 °F /  10.1 °C 44.1 °F /  6.7 °C 30.26in /  1024.6hPa Calm     79.6% 0.00in /  0mm 0 W/m2
20:44 50.2 °F /  10.1 °C 44.2 °F /  6.8 °C 30.26in /  1024.6hPa Calm     80% 0.00in /  0mm 0 W/m2
20:49 50 °F /  10 °C 44.1 °F /  6.7 °C 30.26in /  1024.6hPa Calm     80% 0.00in /  0mm 0 W/m2
20:54 49.6 °F /  9.8 °C 43.7 °F /  6.5 °C 30.26in /  1024.6hPa Calm     80% 0.00in /  0mm 0 W/m2
20:59 49.3 °F /  9.6 °C 43.5 °F /  6.4 °C 30.26in /  1024.6hPa Calm     80.4% 0.00in /  0mm 0 W/m2
21:04 49.3 °F /  9.6 °C 43.7 °F /  6.5 °C 30.26in /  1024.6hPa Calm     81% 0.00in /  0mm 0 W/m2
21:09 49.3 °F /  9.6 °C 44 °F /  6.7 °C 30.26in /  1024.6hPa Calm     81.8% 0.00in /  0mm 0 W/m2
21:14 49.1 °F /  9.5 °C 43.9 °F /  6.6 °C 30.26in /  1024.6hPa Calm     82% 0.00in /  0mm 0 W/m2
21:19 48.7 °F /  9.3 °C 43.5 °F /  6.4 °C 30.26in /  1024.6hPa Calm     82% 0.00in /  0mm 0 W/m2
21:24 48.4 °F /  9.1 °C 43.2 °F /  6.2 °C 30.26in /  1024.6hPa Calm     82% 0.00in /  0mm 0 W/m2
21:29 48.3 °F /  9.1 °C 43.4 °F /  6.3 °C 30.26in /  1024.6hPa Calm     83% 0.00in /  0mm 0 W/m2
21:34 48.2 °F /  9 °C 43.3 °F /  6.3 °C 30.25in /  1024.3hPa Calm     83% 0.00in /  0mm 0 W/m2
21:39 48 °F /  8.9 °C 43.2 °F /  6.2 °C 30.25in /  1024.3hPa Calm     83% 0.00in /  0mm 0 W/m2
21:44 47.8 °F /  8.8 °C 43.2 °F /  6.2 °C 30.25in /  1024.3hPa Calm     84% 0.00in /  0mm 0 W/m2
21:49 47.6 °F /  8.7 °C 42.9 °F /  6.1 °C 30.25in /  1024.3hPa Calm     84% 0.00in /  0mm 0 W/m2
21:54 47.4 °F /  8.6 °C 42.8 °F /  6 °C 30.25in /  1024.3hPa Calm     84% 0.00in /  0mm 0 W/m2
21:59 47.5 °F /  8.6 °C 43.1 °F /  6.2 °C 30.25in /  1024.3hPa Calm     84.8% 0.00in /  0mm 0 W/m2
22:04 47 °F /  8.3 °C 42.7 °F /  5.9 °C 30.25in /  1024.3hPa Calm     85% 0.00in /  0mm 0 W/m2
22:09 46.9 °F /  8.3 °C 42.6 °F /  5.9 °C 30.25in /  1024.3hPa Calm     85% 0.00in /  0mm 0 W/m2
22:14 46.9 °F /  8.3 °C 42.6 °F /  5.9 °C 30.25in /  1024.3hPa Calm     85% 0.00in /  0mm 0 W/m2
22:19 46.9 °F /  8.3 °C 42.6 °F /  5.9 °C 30.25in /  1024.3hPa Calm     85% 0.00in /  0mm 0 W/m2
22:24 46.9 °F /  8.3 °C 42.6 °F /  5.9 °C 30.25in /  1024.3hPa Calm     85% 0.00in /  0mm 0 W/m2
22:29 46.8 °F /  8.2 °C 42.8 °F /  6 °C 30.25in /  1024.3hPa Calm     86% 0.00in /  0mm 0 W/m2
22:34 46.6 °F /  8.1 °C 42.5 °F /  5.8 °C 30.25in /  1024.3hPa Calm     85.8% 0.00in /  0mm 0 W/m2
22:39 46.6 °F /  8.1 °C 42.6 °F /  5.9 °C 30.25in /  1024.3hPa Calm     86% 0.00in /  0mm 0 W/m2
22:44 46.6 °F /  8.1 °C 42.6 °F /  5.9 °C 30.25in /  1024.3hPa Calm     86% 0.00in /  0mm 0 W/m2
22:49 46.5 °F /  8.1 °C 42.5 °F /  5.8 °C 30.25in /  1024.3hPa Calm     86% 0.00in /  0mm 0 W/m2
22:54 46.5 °F /  8.1 °C 42.5 °F /  5.8 °C 30.25in /  1024.3hPa Calm     86% 0.00in /  0mm 0 W/m2
22:59 46.4 °F /  8 °C 42.4 °F /  5.8 °C 30.25in /  1024.3hPa Calm     86% 0.00in /  0mm 0 W/m2
23:04 46.2 °F /  7.9 °C 42.3 °F /  5.7 °C 30.24in /  1023.9hPa Calm     86% 0.00in /  0mm 0 W/m2
23:09 46.1 °F /  7.8 °C 42.2 °F /  5.7 °C 30.24in /  1023.9hPa Calm     86% 0.00in /  0mm 0 W/m2
23:14 46 °F /  7.8 °C 42.1 °F /  5.6 °C 30.24in /  1023.9hPa Calm     86% 0.00in /  0mm 0 W/m2
23:19 45.9 °F /  7.7 °C 42.2 °F /  5.7 °C 30.24in /  1023.9hPa Calm     86.8% 0.00in /  0mm 0 W/m2
23:24 45.8 °F /  7.7 °C 42.2 °F /  5.7 °C 30.24in /  1023.9hPa Calm     87% 0.00in /  0mm 0 W/m2
23:29 45.7 °F /  7.6 °C 42.1 °F /  5.6 °C 30.24in /  1023.9hPa Calm     87% 0.00in /  0mm 0 W/m2
23:34 45.6 °F /  7.6 °C 42 °F /  5.6 °C 30.24in /  1023.9hPa Calm     87% 0.00in /  0mm 0 W/m2
23:39 45.3 °F /  7.4 °C 41.7 °F /  5.4 °C 30.23in /  1023.6hPa Calm     87% 0.00in /  0mm 0 W/m2
23:44 45.1 °F /  7.3 °C 41.5 °F /  5.3 °C 30.23in /  1023.6hPa Calm     87% 0.00in /  0mm 0 W/m2
23:49 45 °F /  7.2 °C 41.4 °F /  5.2 °C 30.23in /  1023.6hPa Calm     87% 0.00in /  0mm 0 W/m2
23:54 44.8 °F /  7.1 °C 41.2 °F /  5.1 °C 30.23in /  1023.6hPa Calm     87% 0.00in /  0mm 0 W/m2
23:59 44.6 °F /  7 °C 41 °F /  5 °C 30.23in /  1023.6hPa Calm     87% 0.00in /  0mm 0 W/m2
Bath Spa Weather
Compliments of Weather Underground - 2 mb